sensor_id;sensor_type;location;lat;lon;timestamp;P1;durP1;ratioP1;P2;durP2;ratioP2
70303;SDS011;57712;48.752;11.348;2023-08-01T00:01:32;8.53;;;4.60;;
70303;SDS011;57712;48.752;11.348;2023-08-01T00:03:59;9.57;;;4.65;;
70303;SDS011;57712;48.752;11.348;2023-08-01T00:06:26;9.80;;;4.43;;
70303;SDS011;57712;48.752;11.348;2023-08-01T00:08:53;9.02;;;4.57;;
70303;SDS011;57712;48.752;11.348;2023-08-01T00:11:19;10.45;;;4.22;;
70303;SDS011;57712;48.752;11.348;2023-08-01T00:13:46;10.03;;;4.43;;
70303;SDS011;57712;48.752;11.348;2023-08-01T00:16:13;8.98;;;4.38;;
70303;SDS011;57712;48.752;11.348;2023-08-01T00:18:40;9.07;;;4.25;;
70303;SDS011;57712;48.752;11.348;2023-08-01T00:21:07;8.88;;;4.40;;
70303;SDS011;57712;48.752;11.348;2023-08-01T00:23:36;10.80;;;4.60;;
70303;SDS011;57712;48.752;11.348;2023-08-01T00:26:03;7.60;;;4.10;;
70303;SDS011;57712;48.752;11.348;2023-08-01T00:28:30;8.80;;;4.18;;
70303;SDS011;57712;48.752;11.348;2023-08-01T00:31:01;8.10;;;4.35;;
70303;SDS011;57712;48.752;11.348;2023-08-01T00:33:32;8.88;;;4.45;;
70303;SDS011;57712;48.752;11.348;2023-08-01T00:35:59;10.25;;;4.50;;
70303;SDS011;57712;48.752;11.348;2023-08-01T00:38:26;8.43;;;4.07;;
70303;SDS011;57712;48.752;11.348;2023-08-01T00:40:53;8.48;;;4.15;;
70303;SDS011;57712;48.752;11.348;2023-08-01T00:43:21;9.93;;;4.57;;
70303;SDS011;57712;48.752;11.348;2023-08-01T00:45:48;9.38;;;4.63;;
70303;SDS011;57712;48.752;11.348;2023-08-01T00:48:15;6.90;;;4.20;;
70303;SDS011;57712;48.752;11.348;2023-08-01T00:50:42;7.73;;;3.97;;
70303;SDS011;57712;48.752;11.348;2023-08-01T00:53:09;11.02;;;3.95;;
70303;SDS011;57712;48.752;11.348;2023-08-01T00:55:36;9.07;;;3.95;;
70303;SDS011;57712;48.752;11.348;2023-08-01T00:58:03;8.98;;;4.03;;
70303;SDS011;57712;48.752;11.348;2023-08-01T01:00:29;9.43;;;4.30;;
70303;SDS011;57712;48.752;11.348;2023-08-01T01:02:56;8.80;;;4.27;;
70303;SDS011;57712;48.752;11.348;2023-08-01T01:05:23;7.45;;;3.80;;
70303;SDS011;57712;48.752;11.348;2023-08-01T01:07:51;7.95;;;4.07;;
70303;SDS011;57712;48.752;11.348;2023-08-01T01:10:18;8.15;;;3.95;;
70303;SDS011;57712;48.752;11.348;2023-08-01T01:12:45;7.35;;;3.65;;
70303;SDS011;57712;48.752;11.348;2023-08-01T01:15:14;8.50;;;3.73;;
70303;SDS011;57712;48.752;11.348;2023-08-01T01:17:40;7.97;;;3.95;;
70303;SDS011;57712;48.752;11.348;2023-08-01T01:20:07;8.75;;;3.92;;
70303;SDS011;57712;48.752;11.348;2023-08-01T01:22:34;11.57;;;4.30;;
70303;SDS011;57712;48.752;11.348;2023-08-01T01:25:02;8.80;;;3.80;;
70303;SDS011;57712;48.752;11.348;2023-08-01T01:27:31;7.97;;;3.83;;
70303;SDS011;57712;48.752;11.348;2023-08-01T01:29:57;7.70;;;4.28;;
70303;SDS011;57712;48.752;11.348;2023-08-01T01:32:25;11.18;;;3.95;;
70303;SDS011;57712;48.752;11.348;2023-08-01T01:34:53;7.95;;;4.15;;
70303;SDS011;57712;48.752;11.348;2023-08-01T01:37:20;7.55;;;4.07;;
70303;SDS011;57712;48.752;11.348;2023-08-01T01:39:46;8.33;;;3.90;;
70303;SDS011;57712;48.752;11.348;2023-08-01T01:42:13;7.75;;;3.88;;
70303;SDS011;57712;48.752;11.348;2023-08-01T01:44:40;8.45;;;4.28;;
70303;SDS011;57712;48.752;11.348;2023-08-01T01:47:06;9.82;;;4.60;;
70303;SDS011;57712;48.752;11.348;2023-08-01T01:49:33;7.97;;;4.43;;
70303;SDS011;57712;48.752;11.348;2023-08-01T01:52:00;10.03;;;4.13;;
70303;SDS011;57712;48.752;11.348;2023-08-01T01:54:26;10.27;;;3.78;;
70303;SDS011;57712;48.752;11.348;2023-08-01T01:56:53;8.00;;;4.15;;
70303;SDS011;57712;48.752;11.348;2023-08-01T01:59:20;7.78;;;4.40;;
70303;SDS011;57712;48.752;11.348;2023-08-01T02:01:46;9.95;;;4.50;;
70303;SDS011;57712;48.752;11.348;2023-08-01T02:04:13;8.50;;;3.90;;
70303;SDS011;57712;48.752;11.348;2023-08-01T02:06:40;10.63;;;4.60;;
70303;SDS011;57712;48.752;11.348;2023-08-01T02:09:07;7.47;;;4.32;;
70303;SDS011;57712;48.752;11.348;2023-08-01T02:11:34;8.23;;;3.97;;
70303;SDS011;57712;48.752;11.348;2023-08-01T02:14:01;9.20;;;3.63;;
70303;SDS011;57712;48.752;11.348;2023-08-01T02:16:29;9.57;;;4.40;;
70303;SDS011;57712;48.752;11.348;2023-08-01T02:18:56;8.75;;;3.92;;
70303;SDS011;57712;48.752;11.348;2023-08-01T02:21:23;10.70;;;4.18;;
70303;SDS011;57712;48.752;11.348;2023-08-01T02:23:50;8.73;;;4.47;;
70303;SDS011;57712;48.752;11.348;2023-08-01T02:26:16;7.70;;;4.20;;
70303;SDS011;57712;48.752;11.348;2023-08-01T02:28:43;10.80;;;4.20;;
70303;SDS011;57712;48.752;11.348;2023-08-01T02:31:11;9.07;;;4.28;;
70303;SDS011;57712;48.752;11.348;2023-08-01T02:33:38;9.70;;;4.05;;
70303;SDS011;57712;48.752;11.348;2023-08-01T02:36:05;8.85;;;4.30;;
70303;SDS011;57712;48.752;11.348;2023-08-01T02:38:31;10.05;;;4.25;;
70303;SDS011;57712;48.752;11.348;2023-08-01T02:40:58;9.30;;;3.93;;
70303;SDS011;57712;48.752;11.348;2023-08-01T02:43:25;8.00;;;3.53;;
70303;SDS011;57712;48.752;11.348;2023-08-01T02:45:52;9.18;;;4.40;;
70303;SDS011;57712;48.752;11.348;2023-08-01T02:48:18;8.70;;;3.97;;
70303;SDS011;57712;48.752;11.348;2023-08-01T02:50:45;8.30;;;3.95;;
70303;SDS011;57712;48.752;11.348;2023-08-01T02:53:12;8.57;;;3.80;;
70303;SDS011;57712;48.752;11.348;2023-08-01T02:55:40;9.65;;;4.05;;
70303;SDS011;57712;48.752;11.348;2023-08-01T02:58:08;6.93;;;3.58;;
70303;SDS011;57712;48.752;11.348;2023-08-01T03:00:37;9.05;;;3.58;;
70303;SDS011;57712;48.752;11.348;2023-08-01T03:03:05;8.05;;;3.80;;
70303;SDS011;57712;48.752;11.348;2023-08-01T03:05:36;8.03;;;3.57;;
70303;SDS011;57712;48.752;11.348;2023-08-01T03:08:06;8.60;;;3.85;;
70303;SDS011;57712;48.752;11.348;2023-08-01T03:10:33;10.30;;;4.35;;
70303;SDS011;57712;48.752;11.348;2023-08-01T03:13:02;8.50;;;3.38;;
70303;SDS011;57712;48.752;11.348;2023-08-01T03:15:29;9.93;;;4.10;;
70303;SDS011;57712;48.752;11.348;2023-08-01T03:17:56;6.83;;;3.60;;
70303;SDS011;57712;48.752;11.348;2023-08-01T03:20:23;8.07;;;3.50;;
70303;SDS011;57712;48.752;11.348;2023-08-01T03:22:50;7.70;;;3.17;;
70303;SDS011;57712;48.752;11.348;2023-08-01T03:25:16;6.57;;;2.97;;
70303;SDS011;57712;48.752;11.348;2023-08-01T03:27:43;9.25;;;3.03;;
70303;SDS011;57712;48.752;11.348;2023-08-01T03:30:10;8.60;;;3.53;;
70303;SDS011;57712;48.752;11.348;2023-08-01T03:32:36;7.53;;;3.53;;
70303;SDS011;57712;48.752;11.348;2023-08-01T03:35:06;8.55;;;3.17;;
70303;SDS011;57712;48.752;11.348;2023-08-01T03:37:33;7.72;;;3.35;;
70303;SDS011;57712;48.752;11.348;2023-08-01T03:40:00;7.28;;;2.97;;
70303;SDS011;57712;48.752;11.348;2023-08-01T03:42:26;7.33;;;3.10;;
70303;SDS011;57712;48.752;11.348;2023-08-01T03:44:53;7.63;;;3.50;;
70303;SDS011;57712;48.752;11.348;2023-08-01T03:47:20;10.00;;;4.18;;
70303;SDS011;57712;48.752;11.348;2023-08-01T03:49:46;7.97;;;3.75;;
70303;SDS011;57712;48.752;11.348;2023-08-01T03:52:13;8.10;;;4.00;;
70303;SDS011;57712;48.752;11.348;2023-08-01T03:54:40;8.13;;;3.63;;
70303;SDS011;57712;48.752;11.348;2023-08-01T03:57:06;9.55;;;3.90;;
70303;SDS011;57712;48.752;11.348;2023-08-01T03:59:33;8.68;;;3.75;;
70303;SDS011;57712;48.752;11.348;2023-08-01T04:02:00;8.88;;;3.92;;
70303;SDS011;57712;48.752;11.348;2023-08-01T04:04:26;7.82;;;3.78;;
70303;SDS011;57712;48.752;11.348;2023-08-01T04:06:53;9.57;;;4.37;;
70303;SDS011;57712;48.752;11.348;2023-08-01T04:09:20;7.68;;;3.53;;
70303;SDS011;57712;48.752;11.348;2023-08-01T04:11:46;8.50;;;4.03;;
70303;SDS011;57712;48.752;11.348;2023-08-01T04:14:16;7.75;;;3.13;;
70303;SDS011;57712;48.752;11.348;2023-08-01T04:16:42;9.07;;;3.70;;
70303;SDS011;57712;48.752;11.348;2023-08-01T04:19:09;7.60;;;3.77;;
70303;SDS011;57712;48.752;11.348;2023-08-01T04:21:36;8.00;;;3.40;;
70303;SDS011;57712;48.752;11.348;2023-08-01T04:24:03;8.25;;;3.83;;
70303;SDS011;57712;48.752;11.348;2023-08-01T04:26:29;9.18;;;3.83;;
70303;SDS011;57712;48.752;11.348;2023-08-01T04:28:56;8.25;;;3.63;;
70303;SDS011;57712;48.752;11.348;2023-08-01T04:31:23;9.23;;;4.30;;
70303;SDS011;57712;48.752;11.348;2023-08-01T04:33:49;8.05;;;3.67;;
70303;SDS011;57712;48.752;11.348;2023-08-01T04:36:16;8.10;;;3.70;;
70303;SDS011;57712;48.752;11.348;2023-08-01T04:38:43;7.32;;;3.28;;
70303;SDS011;57712;48.752;11.348;2023-08-01T04:41:10;7.53;;;3.50;;
70303;SDS011;57712;48.752;11.348;2023-08-01T04:43:36;8.33;;;3.40;;
70303;SDS011;57712;48.752;11.348;2023-08-01T04:46:03;9.75;;;3.60;;
70303;SDS011;57712;48.752;11.348;2023-08-01T04:48:29;7.88;;;3.75;;
70303;SDS011;57712;48.752;11.348;2023-08-01T04:50:56;6.85;;;3.03;;
70303;SDS011;57712;48.752;11.348;2023-08-01T04:53:23;8.40;;;3.22;;
70303;SDS011;57712;48.752;11.348;2023-08-01T04:55:50;8.80;;;3.20;;
70303;SDS011;57712;48.752;11.348;2023-08-01T04:58:18;6.85;;;3.13;;
70303;SDS011;57712;48.752;11.348;2023-08-01T05:00:45;7.47;;;3.35;;
70303;SDS011;57712;48.752;11.348;2023-08-01T05:03:11;8.15;;;3.40;;
70303;SDS011;57712;48.752;11.348;2023-08-01T05:05:38;8.80;;;3.20;;
70303;SDS011;57712;48.752;11.348;2023-08-01T05:08:05;7.50;;;3.37;;
70303;SDS011;57712;48.752;11.348;2023-08-01T05:10:32;8.50;;;3.30;;
70303;SDS011;57712;48.752;11.348;2023-08-01T05:12:58;8.52;;;3.08;;
70303;SDS011;57712;48.752;11.348;2023-08-01T05:15:25;7.80;;;3.25;;
70303;SDS011;57712;48.752;11.348;2023-08-01T05:17:53;7.20;;;3.15;;
70303;SDS011;57712;48.752;11.348;2023-08-01T05:20:20;7.37;;;3.70;;
70303;SDS011;57712;48.752;11.348;2023-08-01T05:22:47;7.53;;;3.10;;
70303;SDS011;57712;48.752;11.348;2023-08-01T05:25:14;8.35;;;3.22;;
70303;SDS011;57712;48.752;11.348;2023-08-01T05:27:40;8.73;;;3.38;;
70303;SDS011;57712;48.752;11.348;2023-08-01T05:30:07;8.50;;;3.85;;
70303;SDS011;57712;48.752;11.348;2023-08-01T05:32:34;7.57;;;3.30;;
70303;SDS011;57712;48.752;11.348;2023-08-01T05:35:01;8.43;;;3.80;;
70303;SDS011;57712;48.752;11.348;2023-08-01T05:37:28;8.77;;;3.38;;
70303;SDS011;57712;48.752;11.348;2023-08-01T05:39:54;9.30;;;3.42;;
70303;SDS011;57712;48.752;11.348;2023-08-01T05:42:21;9.25;;;3.45;;
70303;SDS011;57712;48.752;11.348;2023-08-01T05:44:48;8.30;;;4.07;;
70303;SDS011;57712;48.752;11.348;2023-08-01T05:47:14;6.90;;;3.20;;
70303;SDS011;57712;48.752;11.348;2023-08-01T05:49:41;8.10;;;3.60;;
70303;SDS011;57712;48.752;11.348;2023-08-01T05:52:08;7.53;;;3.80;;
70303;SDS011;57712;48.752;11.348;2023-08-01T05:54:34;7.80;;;3.60;;
70303;SDS011;57712;48.752;11.348;2023-08-01T05:57:01;7.53;;;3.37;;
70303;SDS011;57712;48.752;11.348;2023-08-01T05:59:28;8.25;;;3.97;;
70303;SDS011;57712;48.752;11.348;2023-08-01T06:01:55;8.30;;;3.78;;
70303;SDS011;57712;48.752;11.348;2023-08-01T06:04:21;8.95;;;3.70;;
70303;SDS011;57712;48.752;11.348;2023-08-01T06:06:48;8.55;;;3.42;;
70303;SDS011;57712;48.752;11.348;2023-08-01T06:09:20;6.90;;;3.20;;
70303;SDS011;57712;48.752;11.348;2023-08-01T06:11:49;7.00;;;2.72;;
70303;SDS011;57712;48.752;11.348;2023-08-01T06:14:16;7.50;;;3.55;;
70303;SDS011;57712;48.752;11.348;2023-08-01T06:16:43;8.63;;;3.40;;
70303;SDS011;57712;48.752;11.348;2023-08-01T06:19:10;7.80;;;3.67;;
70303;SDS011;57712;48.752;11.348;2023-08-01T06:21:37;7.73;;;3.27;;
70303;SDS011;57712;48.752;11.348;2023-08-01T06:24:04;7.43;;;3.38;;
70303;SDS011;57712;48.752;11.348;2023-08-01T06:26:30;7.97;;;3.88;;
70303;SDS011;57712;48.752;11.348;2023-08-01T06:28:57;8.57;;;4.00;;
70303;SDS011;57712;48.752;11.348;2023-08-01T06:31:24;9.82;;;3.88;;
70303;SDS011;57712;48.752;11.348;2023-08-01T06:33:50;9.10;;;3.67;;
70303;SDS011;57712;48.752;11.348;2023-08-01T06:36:17;7.78;;;3.72;;
70303;SDS011;57712;48.752;11.348;2023-08-01T06:38:44;8.95;;;3.85;;
70303;SDS011;57712;48.752;11.348;2023-08-01T06:41:10;7.72;;;3.55;;
70303;SDS011;57712;48.752;11.348;2023-08-01T06:43:37;8.07;;;3.83;;
70303;SDS011;57712;48.752;11.348;2023-08-01T06:46:04;8.07;;;3.50;;
70303;SDS011;57712;48.752;11.348;2023-08-01T06:48:31;8.57;;;3.35;;
70303;SDS011;57712;48.752;11.348;2023-08-01T06:51:01;7.55;;;3.47;;
70303;SDS011;57712;48.752;11.348;2023-08-01T06:53:31;7.80;;;3.50;;
70303;SDS011;57712;48.752;11.348;2023-08-01T06:55:57;7.97;;;3.88;;
70303;SDS011;57712;48.752;11.348;2023-08-01T06:58:24;8.17;;;3.63;;
70303;SDS011;57712;48.752;11.348;2023-08-01T07:00:51;7.68;;;3.90;;
70303;SDS011;57712;48.752;11.348;2023-08-01T07:03:17;7.93;;;3.33;;
70303;SDS011;57712;48.752;11.348;2023-08-01T07:05:44;9.05;;;3.75;;
70303;SDS011;57712;48.752;11.348;2023-08-01T07:08:11;8.95;;;3.33;;
70303;SDS011;57712;48.752;11.348;2023-08-01T07:10:38;7.53;;;3.77;;
70303;SDS011;57712;48.752;11.348;2023-08-01T07:13:05;7.82;;;3.72;;
70303;SDS011;57712;48.752;11.348;2023-08-01T07:15:32;9.32;;;4.03;;
70303;SDS011;57712;48.752;11.348;2023-08-01T07:17:59;8.13;;;4.40;;
70303;SDS011;57712;48.752;11.348;2023-08-01T07:20:26;9.40;;;4.03;;
70303;SDS011;57712;48.752;11.348;2023-08-01T07:22:53;8.20;;;3.67;;
70303;SDS011;57712;48.752;11.348;2023-08-01T07:25:20;7.50;;;3.78;;
70303;SDS011;57712;48.752;11.348;2023-08-01T07:27:46;8.80;;;3.75;;
70303;SDS011;57712;48.752;11.348;2023-08-01T07:30:13;7.47;;;3.55;;
70303;SDS011;57712;48.752;11.348;2023-08-01T07:32:39;6.85;;;3.97;;
70303;SDS011;57712;48.752;11.348;2023-08-01T07:35:08;9.23;;;4.07;;
70303;SDS011;57712;48.752;11.348;2023-08-01T07:37:35;7.57;;;3.50;;
70303;SDS011;57712;48.752;11.348;2023-08-01T07:40:05;8.77;;;3.85;;
70303;SDS011;57712;48.752;11.348;2023-08-01T07:42:32;6.90;;;3.30;;
70303;SDS011;57712;48.752;11.348;2023-08-01T07:44:59;8.43;;;3.25;;
70303;SDS011;57712;48.752;11.348;2023-08-01T07:47:26;8.67;;;3.47;;
70303;SDS011;57712;48.752;11.348;2023-08-01T07:49:52;8.05;;;3.42;;
70303;SDS011;57712;48.752;11.348;2023-08-01T07:52:19;7.45;;;3.78;;
70303;SDS011;57712;48.752;11.348;2023-08-01T07:54:46;7.40;;;3.15;;
70303;SDS011;57712;48.752;11.348;2023-08-01T07:57:13;7.30;;;3.40;;
70303;SDS011;57712;48.752;11.348;2023-08-01T07:59:39;8.77;;;3.87;;
70303;SDS011;57712;48.752;11.348;2023-08-01T08:02:06;7.78;;;3.33;;
70303;SDS011;57712;48.752;11.348;2023-08-01T08:04:32;8.38;;;3.60;;
70303;SDS011;57712;48.752;11.348;2023-08-01T08:06:59;6.85;;;3.20;;
70303;SDS011;57712;48.752;11.348;2023-08-01T08:09:26;8.45;;;3.75;;
70303;SDS011;57712;48.752;11.348;2023-08-01T08:11:53;8.20;;;3.57;;
70303;SDS011;57712;48.752;11.348;2023-08-01T08:14:20;8.38;;;3.35;;
70303;SDS011;57712;48.752;11.348;2023-08-01T08:16:50;9.52;;;3.40;;
70303;SDS011;57712;48.752;11.348;2023-08-01T08:19:17;7.78;;;3.42;;
70303;SDS011;57712;48.752;11.348;2023-08-01T08:21:44;7.05;;;3.53;;
70303;SDS011;57712;48.752;11.348;2023-08-01T08:24:10;7.57;;;3.37;;
70303;SDS011;57712;48.752;11.348;2023-08-01T08:26:37;7.47;;;3.08;;
70303;SDS011;57712;48.752;11.348;2023-08-01T08:29:06;8.48;;;3.97;;
70303;SDS011;57712;48.752;11.348;2023-08-01T08:31:33;7.97;;;3.60;;
70303;SDS011;57712;48.752;11.348;2023-08-01T08:34:00;11.68;;;3.88;;
70303;SDS011;57712;48.752;11.348;2023-08-01T08:36:27;8.37;;;3.40;;
70303;SDS011;57712;48.752;11.348;2023-08-01T08:38:53;7.72;;;3.72;;
70303;SDS011;57712;48.752;11.348;2023-08-01T08:41:21;7.55;;;3.35;;
70303;SDS011;57712;48.752;11.348;2023-08-01T08:43:50;8.23;;;3.75;;
70303;SDS011;57712;48.752;11.348;2023-08-01T08:46:24;7.53;;;3.80;;
70303;SDS011;57712;48.752;11.348;2023-08-01T08:48:56;8.17;;;3.50;;
70303;SDS011;57712;48.752;11.348;2023-08-01T08:51:24;9.73;;;3.85;;
70303;SDS011;57712;48.752;11.348;2023-08-01T08:53:53;9.57;;;3.40;;
70303;SDS011;57712;48.752;11.348;2023-08-01T08:56:20;8.38;;;3.90;;
70303;SDS011;57712;48.752;11.348;2023-08-01T08:58:49;7.63;;;3.80;;
70303;SDS011;57712;48.752;11.348;2023-08-01T09:01:17;8.57;;;4.00;;
70303;SDS011;57712;48.752;11.348;2023-08-01T09:03:44;7.88;;;3.65;;
70303;SDS011;57712;48.752;11.348;2023-08-01T09:06:14;7.10;;;3.75;;
70303;SDS011;57712;48.752;11.348;2023-08-01T09:08:56;8.68;;;3.45;;
70303;SDS011;57712;48.752;11.348;2023-08-01T09:11:29;8.38;;;4.40;;
70303;SDS011;57712;48.752;11.348;2023-08-01T09:13:55;7.67;;;3.80;;
70303;SDS011;57712;48.752;11.348;2023-08-01T09:16:22;8.27;;;3.50;;
70303;SDS011;57712;48.752;11.348;2023-08-01T09:18:50;7.50;;;3.40;;
70303;SDS011;57712;48.752;11.348;2023-08-01T09:21:18;7.68;;;3.55;;
70303;SDS011;57712;48.752;11.348;2023-08-01T09:23:45;7.97;;;3.45;;
70303;SDS011;57712;48.752;11.348;2023-08-01T09:26:15;8.43;;;4.07;;
70303;SDS011;57712;48.752;11.348;2023-08-01T09:28:43;7.60;;;3.33;;
70303;SDS011;57712;48.752;11.348;2023-08-01T09:31:10;8.50;;;4.20;;
70303;SDS011;57712;48.752;11.348;2023-08-01T09:33:38;7.57;;;3.28;;
70303;SDS011;57712;48.752;11.348;2023-08-01T09:36:09;8.75;;;3.38;;
70303;SDS011;57712;48.752;11.348;2023-08-01T09:38:36;7.73;;;3.53;;
70303;SDS011;57712;48.752;11.348;2023-08-01T09:41:04;7.32;;;3.35;;
70303;SDS011;57712;48.752;11.348;2023-08-01T09:43:34;8.18;;;3.53;;
70303;SDS011;57712;48.752;11.348;2023-08-01T09:46:06;7.75;;;3.53;;
70303;SDS011;57712;48.752;11.348;2023-08-01T09:48:33;9.13;;;3.65;;
70303;SDS011;57712;48.752;11.348;2023-08-01T09:51:13;7.93;;;3.17;;
70303;SDS011;57712;48.752;11.348;2023-08-01T09:56:20;7.43;;;3.72;;
70303;SDS011;57712;48.752;11.348;2023-08-01T09:58:47;7.88;;;3.28;;
70303;SDS011;57712;48.752;11.348;2023-08-01T10:01:15;7.93;;;2.85;;
70303;SDS011;57712;48.752;11.348;2023-08-01T10:03:47;7.37;;;2.90;;
70303;SDS011;57712;48.752;11.348;2023-08-01T10:06:24;9.15;;;3.55;;
70303;SDS011;57712;48.752;11.348;2023-08-01T10:08:58;7.43;;;3.55;;
70303;SDS011;57712;48.752;11.348;2023-08-01T10:11:26;7.80;;;3.72;;
70303;SDS011;57712;48.752;11.348;2023-08-01T10:13:53;8.02;;;3.40;;
70303;SDS011;57712;48.752;11.348;2023-08-01T10:16:20;8.83;;;3.07;;
70303;SDS011;57712;48.752;11.348;2023-08-01T10:18:48;9.50;;;3.30;;
70303;SDS011;57712;48.752;11.348;2023-08-01T10:21:16;8.23;;;3.42;;
70303;SDS011;57712;48.752;11.348;2023-08-01T10:23:44;8.73;;;3.40;;
70303;SDS011;57712;48.752;11.348;2023-08-01T10:26:13;8.30;;;3.67;;
70303;SDS011;57712;48.752;11.348;2023-08-01T10:28:40;8.07;;;3.20;;
70303;SDS011;57712;48.752;11.348;2023-08-01T10:31:17;7.45;;;3.45;;
70303;SDS011;57712;48.752;11.348;2023-08-01T10:33:45;8.77;;;3.08;;
70303;SDS011;57712;48.752;11.348;2023-08-01T10:38:44;7.75;;;3.50;;
70303;SDS011;57712;48.752;11.348;2023-08-01T10:41:46;9.07;;;3.63;;
70303;SDS011;57712;48.752;11.348;2023-08-01T10:44:07;8.90;;;4.18;;
70303;SDS011;57712;48.752;11.348;2023-08-01T10:46:47;10.85;;;4.38;;
70303;SDS011;57712;48.752;11.348;2023-08-01T10:49:20;9.13;;;3.65;;
70303;SDS011;57712;48.752;11.348;2023-08-01T10:52:25;8.40;;;3.90;;
70303;SDS011;57712;48.752;11.348;2023-08-01T10:55:02;9.23;;;4.00;;
70303;SDS011;57712;48.752;11.348;2023-08-01T10:57:39;8.07;;;4.00;;
70303;SDS011;57712;48.752;11.348;2023-08-01T11:00:15;10.73;;;4.00;;
70303;SDS011;57712;48.752;11.348;2023-08-01T11:02:48;7.50;;;3.92;;
70303;SDS011;57712;48.752;11.348;2023-08-01T11:05:17;8.57;;;3.60;;
70303;SDS011;57712;48.752;11.348;2023-08-01T11:07:53;8.67;;;3.80;;
70303;SDS011;57712;48.752;11.348;2023-08-01T11:10:26;9.25;;;4.40;;
70303;SDS011;57712;48.752;11.348;2023-08-01T11:12:54;10.68;;;4.53;;
70303;SDS011;57712;48.752;11.348;2023-08-01T11:15:24;9.70;;;3.90;;
70303;SDS011;57712;48.752;11.348;2023-08-01T11:17:52;9.68;;;4.35;;
70303;SDS011;57712;48.752;11.348;2023-08-01T11:20:23;8.67;;;4.37;;
70303;SDS011;57712;48.752;11.348;2023-08-01T11:22:52;8.07;;;3.58;;
70303;SDS011;57712;48.752;11.348;2023-08-01T11:25:20;8.13;;;3.83;;
70303;SDS011;57712;48.752;11.348;2023-08-01T11:28:05;9.13;;;4.05;;
70303;SDS011;57712;48.752;11.348;2023-08-01T11:30:41;8.45;;;3.78;;
70303;SDS011;57712;48.752;11.348;2023-08-01T11:33:15;7.63;;;2.63;;
70303;SDS011;57712;48.752;11.348;2023-08-01T11:35:44;8.10;;;3.40;;
70303;SDS011;57712;48.752;11.348;2023-08-01T11:38:11;5.97;;;2.50;;
70303;SDS011;57712;48.752;11.348;2023-08-01T11:40:38;7.25;;;3.00;;
70303;SDS011;57712;48.752;11.348;2023-08-01T11:43:06;7.00;;;2.80;;
70303;SDS011;57712;48.752;11.348;2023-08-01T11:45:33;7.37;;;2.60;;
70303;SDS011;57712;48.752;11.348;2023-08-01T11:47:59;7.25;;;3.30;;
70303;SDS011;57712;48.752;11.348;2023-08-01T11:50:26;6.47;;;3.03;;
70303;SDS011;57712;48.752;11.348;2023-08-01T11:52:53;6.65;;;2.55;;
70303;SDS011;57712;48.752;11.348;2023-08-01T11:55:20;6.28;;;2.35;;
70303;SDS011;57712;48.752;11.348;2023-08-01T11:57:56;6.73;;;2.60;;
70303;SDS011;57712;48.752;11.348;2023-08-01T12:00:25;5.90;;;1.98;;
70303;SDS011;57712;48.752;11.348;2023-08-01T12:03:03;6.15;;;2.72;;
70303;SDS011;57712;48.752;11.348;2023-08-01T12:05:41;6.32;;;2.60;;
70303;SDS011;57712;48.752;11.348;2023-08-01T12:08:11;6.90;;;2.95;;
70303;SDS011;57712;48.752;11.348;2023-08-01T12:10:40;6.30;;;2.20;;
70303;SDS011;57712;48.752;11.348;2023-08-01T12:13:21;6.30;;;2.50;;
70303;SDS011;57712;48.752;11.348;2023-08-01T12:15:52;6.40;;;2.40;;
70303;SDS011;57712;48.752;11.348;2023-08-01T12:18:27;6.90;;;2.55;;
70303;SDS011;57712;48.752;11.348;2023-08-01T12:21:15;7.28;;;2.67;;
70303;SDS011;57712;48.752;11.348;2023-08-01T12:23:41;7.03;;;2.63;;
70303;SDS011;57712;48.752;11.348;2023-08-01T12:26:08;5.63;;;2.35;;
70303;SDS011;57712;48.752;11.348;2023-08-01T12:28:35;7.00;;;3.00;;
70303;SDS011;57712;48.752;11.348;2023-08-01T12:31:05;5.43;;;1.90;;
70303;SDS011;57712;48.752;11.348;2023-08-01T12:33:32;6.43;;;2.20;;
70303;SDS011;57712;48.752;11.348;2023-08-01T12:35:59;6.57;;;2.00;;
70303;SDS011;57712;48.752;11.348;2023-08-01T12:38:26;6.53;;;2.58;;
70303;SDS011;57712;48.752;11.348;2023-08-01T12:40:53;6.68;;;2.13;;
70303;SDS011;57712;48.752;11.348;2023-08-01T12:43:20;6.15;;;2.20;;
70303;SDS011;57712;48.752;11.348;2023-08-01T12:45:46;5.57;;;1.90;;
70303;SDS011;57712;48.752;11.348;2023-08-01T12:48:18;5.63;;;2.10;;
70303;SDS011;57712;48.752;11.348;2023-08-01T12:50:45;6.38;;;2.10;;
70303;SDS011;57712;48.752;11.348;2023-08-01T12:53:12;5.13;;;1.90;;
70303;SDS011;57712;48.752;11.348;2023-08-01T12:55:49;5.38;;;1.60;;
70303;SDS011;57712;48.752;11.348;2023-08-01T12:58:17;5.30;;;1.65;;
70303;SDS011;57712;48.752;11.348;2023-08-01T13:00:44;5.50;;;2.07;;
70303;SDS011;57712;48.752;11.348;2023-08-01T13:03:11;4.93;;;1.80;;
70303;SDS011;57712;48.752;11.348;2023-08-01T13:05:39;4.82;;;1.40;;
70303;SDS011;57712;48.752;11.348;2023-08-01T13:08:07;4.85;;;1.65;;
70303;SDS011;57712;48.752;11.348;2023-08-01T13:10:35;6.03;;;1.90;;
70303;SDS011;57712;48.752;11.348;2023-08-01T13:13:03;5.57;;;1.73;;
70303;SDS011;57712;48.752;11.348;2023-08-01T13:15:30;6.28;;;1.60;;
70303;SDS011;57712;48.752;11.348;2023-08-01T13:17:56;4.78;;;1.90;;
70303;SDS011;57712;48.752;11.348;2023-08-01T13:20:23;4.20;;;1.27;;
70303;SDS011;57712;48.752;11.348;2023-08-01T13:22:53;4.60;;;1.67;;
70303;SDS011;57712;48.752;11.348;2023-08-01T13:25:20;3.80;;;0.93;;
70303;SDS011;57712;48.752;11.348;2023-08-01T13:27:49;4.05;;;1.00;;
70303;SDS011;57712;48.752;11.348;2023-08-01T13:30:16;4.32;;;1.10;;
70303;SDS011;57712;48.752;11.348;2023-08-01T13:32:44;3.60;;;1.15;;
70303;SDS011;57712;48.752;11.348;2023-08-01T13:35:12;3.50;;;1.08;;
70303;SDS011;57712;48.752;11.348;2023-08-01T13:37:39;3.80;;;1.07;;
70303;SDS011;57712;48.752;11.348;2023-08-01T13:40:06;3.83;;;1.20;;
70303;SDS011;57712;48.752;11.348;2023-08-01T13:42:34;4.72;;;1.58;;
70303;SDS011;57712;48.752;11.348;2023-08-01T13:45:01;4.38;;;1.30;;
70303;SDS011;57712;48.752;11.348;2023-08-01T13:47:27;3.90;;;1.10;;
70303;SDS011;57712;48.752;11.348;2023-08-01T13:49:54;3.80;;;0.90;;
70303;SDS011;57712;48.752;11.348;2023-08-01T13:52:21;4.25;;;1.00;;
70303;SDS011;57712;48.752;11.348;2023-08-01T13:54:48;5.03;;;1.30;;
70303;SDS011;57712;48.752;11.348;2023-08-01T13:57:14;4.97;;;1.27;;
70303;SDS011;57712;48.752;11.348;2023-08-01T13:59:41;8.57;;;1.65;;
70303;SDS011;57712;48.752;11.348;2023-08-01T14:02:09;4.00;;;0.80;;
70303;SDS011;57712;48.752;11.348;2023-08-01T14:04:36;4.53;;;1.13;;
70303;SDS011;57712;48.752;11.348;2023-08-01T14:07:03;4.88;;;0.90;;
70303;SDS011;57712;48.752;11.348;2023-08-01T14:09:30;4.40;;;1.20;;
70303;SDS011;57712;48.752;11.348;2023-08-01T14:11:58;5.10;;;1.90;;
70303;SDS011;57712;48.752;11.348;2023-08-01T14:14:25;4.90;;;1.20;;
70303;SDS011;57712;48.752;11.348;2023-08-01T14:16:52;4.22;;;1.00;;
70303;SDS011;57712;48.752;11.348;2023-08-01T14:19:19;4.32;;;1.40;;
70303;SDS011;57712;48.752;11.348;2023-08-01T14:21:46;4.80;;;1.38;;
70303;SDS011;57712;48.752;11.348;2023-08-01T14:24:12;3.80;;;1.20;;
70303;SDS011;57712;48.752;11.348;2023-08-01T14:26:43;4.10;;;1.20;;
70303;SDS011;57712;48.752;11.348;2023-08-01T14:29:10;5.32;;;1.25;;
70303;SDS011;57712;48.752;11.348;2023-08-01T14:31:36;5.05;;;1.55;;
70303;SDS011;57712;48.752;11.348;2023-08-01T14:34:03;4.60;;;1.50;;
70303;SDS011;57712;48.752;11.348;2023-08-01T14:36:29;4.70;;;1.40;;
70303;SDS011;57712;48.752;11.348;2023-08-01T14:38:56;5.00;;;1.20;;
70303;SDS011;57712;48.752;11.348;2023-08-01T14:41:30;4.90;;;1.38;;
70303;SDS011;57712;48.752;11.348;2023-08-01T14:44:17;4.13;;;0.90;;